createdAt,value
2017-12-28T00:02:42.083Z,8.40
2017-12-28T00:09:24.328Z,8.40
2017-12-28T00:11:59.645Z,8.40
2017-12-28T00:18:08.142Z,8.60
2017-12-28T00:20:52.574Z,8.60
2017-12-28T00:23:32.437Z,8.30
2017-12-28T00:26:11.743Z,8.20
2017-12-28T00:29:42.474Z,8.50
2017-12-28T00:32:17.832Z,8.40
2017-12-28T00:35:01.888Z,8.20
2017-12-28T00:37:55.908Z,8.40
2017-12-28T00:40:33.080Z,8.60
2017-12-28T00:43:05.494Z,8.60
2017-12-28T00:50:29.409Z,8.80
2017-12-28T00:53:08.038Z,8.80
2017-12-28T00:55:54.229Z,8.70
2017-12-28T00:58:35.415Z,8.80
2017-12-28T01:03:53.527Z,8.70
2017-12-28T01:06:26.718Z,8.60
2017-12-28T01:09:05.037Z,8.40
2017-12-28T01:11:37.588Z,8.40
2017-12-28T01:18:08.105Z,8.60
2017-12-28T01:28:52.106Z,8.60
2017-12-28T01:42:19.068Z,8.30
2017-12-28T01:56:35.577Z,8.70
2017-12-28T02:03:46.113Z,8.80
2017-12-28T02:06:54.426Z,8.70
2017-12-28T02:10:10.638Z,8.70
2017-12-28T02:35:10.848Z,9.00
2017-12-28T02:37:59.646Z,8.80
2017-12-28T02:40:47.041Z,8.90
2017-12-28T02:44:08.551Z,8.80
2017-12-28T02:46:47.569Z,8.80
2017-12-28T02:53:39.728Z,8.70
2017-12-28T03:11:42.732Z,8.50
2017-12-28T03:18:27.815Z,8.30
2017-12-28T03:55:21.167Z,8.30
2017-12-28T04:05:41.465Z,8.60
2017-12-28T04:11:30.993Z,8.40
2017-12-28T04:14:07.205Z,8.10
2017-12-28T04:21:40.809Z,8.40
2017-12-28T04:24:23.799Z,8.60
2017-12-28T04:27:18.130Z,8.50
2017-12-28T04:34:25.757Z,8.20
2017-12-28T04:49:14.720Z,8.20
2017-12-28T04:55:05.979Z,8.20
2017-12-28T05:12:15.271Z,8.80
2017-12-28T05:18:27.829Z,8.70
2017-12-28T05:21:12.963Z,8.70
2017-12-28T05:23:52.533Z,8.40
2017-12-28T05:26:30.339Z,8.30
2017-12-28T05:36:52.994Z,7.50
2017-12-28T05:39:25.971Z,5.90
2017-12-28T05:41:59.588Z,5.90
2017-12-28T05:44:35.155Z,6.00
2017-12-28T05:47:10.977Z,6.00
2017-12-28T05:49:46.428Z,6.00
2017-12-28T05:52:20.207Z,5.90
2017-12-28T05:54:54.379Z,6.10
2017-12-28T05:57:29.660Z,6.00
2017-12-28T06:00:01.068Z,5.70
2017-12-28T06:02:40.622Z,5.50
2017-12-28T06:05:13.583Z,5.30
2017-12-28T06:23:22.139Z,5.60
2017-12-28T06:26:00.964Z,5.60
2017-12-28T06:28:36.979Z,5.40
2017-12-28T06:31:21.359Z,5.50
2017-12-28T06:34:11.307Z,5.40
2017-12-28T06:37:16.936Z,5.30
2017-12-28T06:39:51.580Z,5.00
2017-12-28T06:42:22.332Z,5.00
2017-12-28T06:45:05.386Z,5.20
2017-12-28T06:47:39.889Z,5.20
2017-12-28T06:50:11.962Z,5.40
2017-12-28T06:52:43.560Z,5.30
2017-12-28T06:55:30.869Z,5.30
2017-12-28T06:58:02.927Z,5.30
2017-12-28T07:00:49.913Z,5.40
2017-12-28T07:03:26.031Z,5.00
2017-12-28T07:05:57.552Z,5.20
2017-12-28T07:08:28.025Z,5.00
2017-12-28T07:10:58.458Z,5.10
2017-12-28T07:13:33.470Z,5.20
2017-12-28T07:16:07.318Z,5.00
2017-12-28T07:18:38.974Z,5.00
2017-12-28T07:21:24.794Z,5.10
2017-12-28T07:26:41.792Z,5.10
2017-12-28T07:29:19.637Z,5.40
2017-12-28T07:32:00.650Z,5.50
2017-12-28T07:34:35.970Z,5.50
2017-12-28T07:37:17.984Z,5.60
2017-12-28T07:40:03.633Z,5.30
2017-12-28T07:42:41.479Z,5.40
2017-12-28T07:45:29.941Z,5.80
2017-12-28T07:48:09.148Z,5.80
2017-12-28T07:50:40.071Z,5.60
2017-12-28T07:53:12.321Z,5.40
2017-12-28T07:55:42.443Z,5.50
2017-12-28T07:58:30.003Z,5.70
2017-12-28T08:01:05.708Z,6.40
2017-12-28T08:03:42.340Z,6.40
2017-12-28T08:06:15.689Z,6.60
2017-12-28T08:08:48.461Z,6.40
2017-12-28T08:11:19.821Z,6.40
2017-12-28T08:14:14.282Z,6.00
2017-12-28T08:16:53.162Z,5.90
2017-12-28T08:19:28.179Z,6.00
2017-12-28T08:21:59.338Z,6.50
2017-12-28T08:24:33.422Z,6.80
2017-12-28T08:27:08.295Z,6.20
2017-12-28T08:29:46.239Z,6.00
2017-12-28T08:32:31.881Z,6.00
2017-12-28T08:35:07.257Z,6.30
2017-12-28T08:37:40.452Z,6.30
2017-12-28T08:40:17.483Z,6.20
2017-12-28T08:42:58.389Z,6.10
2017-12-28T08:46:25.976Z,6.50
2017-12-28T08:54:46.441Z,6.60
2017-12-28T09:00:07.758Z,7.00
2017-12-28T09:02:42.987Z,6.80
2017-12-28T09:05:20.894Z,6.90
2017-12-28T09:07:53.092Z,6.90
2017-12-28T09:10:40.999Z,7.20
2017-12-28T09:13:14.540Z,7.60
2017-12-28T09:15:46.952Z,7.40
2017-12-28T09:18:20.387Z,7.30
2017-12-28T09:20:56.432Z,7.80
2017-12-28T09:23:31.896Z,7.70
2017-12-28T09:28:50.921Z,7.00
2017-12-28T09:31:27.578Z,6.80
2017-12-28T09:33:59.461Z,7.10
2017-12-28T09:36:31.576Z,6.70
2017-12-28T09:39:02.860Z,6.90
2017-12-28T09:41:34.280Z,6.80
2017-12-28T09:44:05.507Z,6.50
2017-12-28T09:46:35.629Z,6.70
2017-12-28T09:49:09.985Z,6.90
2017-12-28T09:51:42.835Z,7.20
2017-12-28T09:54:22.964Z,7.00
2017-12-28T09:56:57.144Z,7.00
2017-12-28T09:59:31.639Z,7.00
2017-12-28T10:02:20.271Z,7.00
2017-12-28T10:04:51.226Z,7.20
2017-12-28T10:07:29.031Z,7.10
2017-12-28T10:10:15.215Z,7.50
2017-12-28T10:12:50.682Z,7.50
2017-12-28T10:15:23.036Z,7.70
2017-12-28T10:17:55.638Z,8.00
2017-12-28T10:20:27.693Z,8.00
2017-12-28T10:22:59.849Z,8.00
2017-12-28T10:25:33.669Z,7.90
2017-12-28T10:28:15.111Z,7.90
2017-12-28T10:30:55.598Z,7.70
2017-12-28T10:33:28.166Z,7.40
2017-12-28T10:36:07.258Z,7.60
2017-12-28T10:38:39.047Z,7.80
2017-12-28T10:41:18.239Z,7.70
2017-12-28T10:43:56.348Z,7.70
2017-12-28T10:46:31.373Z,8.10
2017-12-28T10:49:02.721Z,7.80
2017-12-28T10:51:37.071Z,7.60
2017-12-28T10:54:16.684Z,8.00
2017-12-28T10:56:50.904Z,8.10
2017-12-28T11:02:24.288Z,7.50
2017-12-28T11:05:01.417Z,7.70
2017-12-28T11:07:47.385Z,7.50
2017-12-28T11:10:18.877Z,7.20
2017-12-28T11:12:54.131Z,7.30
2017-12-28T11:18:29.341Z,7.60
2017-12-28T11:21:00.795Z,7.50
2017-12-28T11:23:33.408Z,7.80
2017-12-28T11:26:04.195Z,7.60
2017-12-28T11:28:37.883Z,7.70
2017-12-28T11:31:09.146Z,7.90
2017-12-28T11:36:28.081Z,7.80
2017-12-28T11:41:31.312Z,7.40
2017-12-28T11:44:06.951Z,7.40
2017-12-28T11:46:42.804Z,7.70
2017-12-28T11:49:20.988Z,7.30
2017-12-28T11:51:51.044Z,7.30
2017-12-28T11:54:30.903Z,7.60
2017-12-28T11:57:10.450Z,7.80
2017-12-28T12:00:20.812Z,7.40
2017-12-28T12:03:02.067Z,7.40
2017-12-28T12:05:47.620Z,7.10
2017-12-28T12:08:28.926Z,7.70
2017-12-28T12:11:02.987Z,7.90
2017-12-28T12:13:37.370Z,7.70
2017-12-28T12:16:08.396Z,7.50
2017-12-28T12:18:41.081Z,7.40
2017-12-28T12:21:20.144Z,7.50
2017-12-28T12:23:51.573Z,7.00
2017-12-28T12:26:38.280Z,7.10
2017-12-28T12:29:08.106Z,7.10
2017-12-28T12:31:44.332Z,7.00
2017-12-28T12:34:16.921Z,7.00
2017-12-28T12:36:48.335Z,6.90
2017-12-28T12:39:23.984Z,6.90
2017-12-28T12:42:05.845Z,7.40
2017-12-28T12:44:39.873Z,7.30
2017-12-28T12:47:12.552Z,7.20
2017-12-28T12:49:44.886Z,7.60
2017-12-28T12:52:22.102Z,7.90
2017-12-28T12:54:53.504Z,7.90
2017-12-28T12:57:26.295Z,7.30
2017-12-28T12:59:56.663Z,7.50
2017-12-28T13:02:28.223Z,7.60
2017-12-28T13:05:00.867Z,7.70
2017-12-28T13:07:37.527Z,7.80
2017-12-28T13:10:18.815Z,7.80
2017-12-28T13:12:51.449Z,7.80
2017-12-28T13:15:24.441Z,7.70
2017-12-28T13:17:56.147Z,7.30
2017-12-28T13:20:35.506Z,7.50
2017-12-28T13:23:08.047Z,7.50
2017-12-28T13:25:41.927Z,7.60
2017-12-28T13:28:14.749Z,7.30
2017-12-28T13:30:48.145Z,7.40
2017-12-28T13:33:21.962Z,7.10
2017-12-28T13:35:53.306Z,7.40
2017-12-28T13:38:27.084Z,7.60
2017-12-28T13:40:58.175Z,6.90
2017-12-28T13:43:31.456Z,6.90
2017-12-28T13:46:11.111Z,7.00
2017-12-28T13:48:42.707Z,7.10
2017-12-28T13:51:12.877Z,7.00
2017-12-28T13:53:47.934Z,6.50
2017-12-28T13:56:24.572Z,6.50
2017-12-28T13:59:00.374Z,6.50
2017-12-28T14:01:30.400Z,6.60
2017-12-28T14:04:03.276Z,6.40
2017-12-28T14:06:38.121Z,6.00
2017-12-28T14:09:10.053Z,6.00
2017-12-28T14:11:41.044Z,6.10
2017-12-28T14:14:19.516Z,6.20
2017-12-28T14:16:50.868Z,6.20
2017-12-28T14:19:21.386Z,6.20
2017-12-28T14:21:54.212Z,6.30
2017-12-28T14:24:51.362Z,6.30
2017-12-28T14:27:25.355Z,6.40
2017-12-28T14:29:55.605Z,6.30
2017-12-28T14:32:33.113Z,6.30
2017-12-28T14:35:09.718Z,6.30
2017-12-28T14:37:42.245Z,6.20
2017-12-28T14:42:55.022Z,5.70
2017-12-28T14:45:36.951Z,5.50
2017-12-28T14:48:23.607Z,6.10
2017-12-28T14:50:56.676Z,6.10
2017-12-28T14:53:31.429Z,5.90
2017-12-28T14:56:02.607Z,6.30
2017-12-28T14:58:35.884Z,6.40
2017-12-28T15:01:09.235Z,6.40
2017-12-28T15:03:42.736Z,6.30
2017-12-28T15:06:15.402Z,6.20
2017-12-28T15:08:48.083Z,6.40
2017-12-28T15:11:21.228Z,6.40
2017-12-28T15:13:51.979Z,6.50
2017-12-28T15:16:26.135Z,6.50
2017-12-28T15:21:38.088Z,5.90
2017-12-28T15:24:43.498Z,5.90
2017-12-28T15:27:18.127Z,6.20
2017-12-28T15:29:56.104Z,6.20
2017-12-28T15:32:31.816Z,6.20
2017-12-28T15:37:45.824Z,7.00
2017-12-28T15:40:17.105Z,6.70
2017-12-28T15:42:50.751Z,7.00
2017-12-28T15:45:22.016Z,7.10
2017-12-28T15:47:54.202Z,6.50
2017-12-28T15:50:24.324Z,7.00
2017-12-28T15:53:07.886Z,7.30
2017-12-28T15:55:47.147Z,7.00
2017-12-28T15:58:29.500Z,7.30
2017-12-28T16:01:04.651Z,7.10
2017-12-28T16:03:36.160Z,7.00
2017-12-28T16:06:08.861Z,7.40
2017-12-28T16:08:40.975Z,7.70
2017-12-28T16:11:13.111Z,7.40
2017-12-28T16:13:48.160Z,7.40
2017-12-28T16:16:20.028Z,7.10
2017-12-28T16:21:43.633Z,7.00
2017-12-28T16:24:15.811Z,6.90
2017-12-28T16:26:48.130Z,6.50
2017-12-28T16:29:21.940Z,6.00
2017-12-28T16:31:54.451Z,5.80
2017-12-28T16:34:32.068Z,5.80
2017-12-28T16:37:12.919Z,5.70
2017-12-28T16:39:46.327Z,6.40
2017-12-28T16:42:17.943Z,6.50
2017-12-28T16:44:52.296Z,6.50
2017-12-28T16:47:34.260Z,6.60
2017-12-28T16:50:08.588Z,6.60
2017-12-28T16:52:40.849Z,6.20
2017-12-28T16:55:12.096Z,6.30
2017-12-28T16:57:50.826Z,6.30
2017-12-28T17:00:24.597Z,5.70
2017-12-28T17:03:01.478Z,5.20
2017-12-28T17:05:34.866Z,5.00
2017-12-28T17:08:08.782Z,5.00
2017-12-28T17:10:39.936Z,5.10
2017-12-28T17:13:12.010Z,4.80
2017-12-28T17:15:42.165Z,4.70
2017-12-28T17:18:15.462Z,4.90
2017-12-28T17:23:29.432Z,4.90
2017-12-28T17:26:18.234Z,5.10
2017-12-28T17:29:25.959Z,5.10
2017-12-28T17:32:00.188Z,4.60
2017-12-28T17:34:31.662Z,4.70
2017-12-28T17:37:02.748Z,4.80
2017-12-28T17:39:36.802Z,4.90
2017-12-28T17:42:07.825Z,4.80
2017-12-28T17:44:38.676Z,4.70
2017-12-28T17:47:09.525Z,4.80
2017-12-28T17:49:42.176Z,4.90
2017-12-28T17:52:14.315Z,4.90
2017-12-28T17:54:47.572Z,4.80
2017-12-28T17:57:18.313Z,4.60
2017-12-28T17:59:49.757Z,4.60
2017-12-28T18:02:27.583Z,4.70
2017-12-28T18:05:00.856Z,4.80
2017-12-28T18:07:33.368Z,4.70
2017-12-28T18:10:04.675Z,4.70
2017-12-28T18:12:36.145Z,4.90
2017-12-28T18:15:06.996Z,4.70
2017-12-28T18:17:40.353Z,4.80
2017-12-28T18:20:13.346Z,4.20
2017-12-28T18:22:45.644Z,4.30
2017-12-28T18:25:22.254Z,4.10
2017-12-28T18:27:54.641Z,4.50
2017-12-28T18:30:35.950Z,4.50
2017-12-28T18:33:07.975Z,4.40
2017-12-28T18:35:41.146Z,4.30
2017-12-28T18:38:12.013Z,4.20
2017-12-28T18:40:45.500Z,4.10
2017-12-28T18:43:16.028Z,4.10
2017-12-28T18:45:52.474Z,4.60
2017-12-28T18:48:31.282Z,4.50
2017-12-28T18:51:09.610Z,3.90
2017-12-28T18:53:45.754Z,3.80
2017-12-28T18:56:17.816Z,4.20
2017-12-28T19:01:28.132Z,3.80
2017-12-28T19:04:04.749Z,3.30
2017-12-28T19:06:35.730Z,3.30
2017-12-28T19:09:19.897Z,3.80
2017-12-28T19:12:00.182Z,4.00
2017-12-28T19:14:42.020Z,3.90
2017-12-28T19:17:18.890Z,3.90
2017-12-28T19:19:52.008Z,4.00
2017-12-28T19:22:22.624Z,3.90
2017-12-28T19:24:58.882Z,4.20
2017-12-28T19:27:30.272Z,3.70
2017-12-28T19:32:47.396Z,3.90
2017-12-28T19:35:17.930Z,4.30
2017-12-28T19:37:51.591Z,4.10
2017-12-28T19:40:24.421Z,3.90
2017-12-28T19:43:00.834Z,4.00
2017-12-28T19:45:32.173Z,4.00
2017-12-28T19:48:05.159Z,4.00
2017-12-28T19:50:41.942Z,3.40
2017-12-28T19:53:13.253Z,3.50
2017-12-28T19:55:47.236Z,3.40
2017-12-28T19:58:24.769Z,3.60
2017-12-28T20:01:00.779Z,3.20
2017-12-28T20:03:31.960Z,3.20
2017-12-28T20:06:17.542Z,3.30
2017-12-28T20:08:48.748Z,3.60
2017-12-28T20:11:22.962Z,3.90
2017-12-28T20:14:01.340Z,3.80
2017-12-28T20:16:52.964Z,3.60
2017-12-28T20:19:32.731Z,3.30
2017-12-28T20:22:07.775Z,3.30
2017-12-28T20:27:22.105Z,3.50
2017-12-28T20:30:08.188Z,3.50
2017-12-28T20:32:40.980Z,3.40
2017-12-28T20:35:22.609Z,3.70
2017-12-28T20:37:57.788Z,3.70
2017-12-28T20:40:35.456Z,3.20
2017-12-28T20:43:16.230Z,3.60
2017-12-28T20:45:50.884Z,3.40
2017-12-28T20:48:31.749Z,3.50
2017-12-28T20:51:08.969Z,3.40
2017-12-28T20:53:42.957Z,2.90
2017-12-28T20:56:20.311Z,2.70
2017-12-28T20:58:56.919Z,2.80
2017-12-28T21:01:32.840Z,3.10
2017-12-28T21:04:05.705Z,3.20
2017-12-28T21:06:38.349Z,3.10
2017-12-28T21:09:12.097Z,2.70
2017-12-28T21:11:45.747Z,3.00
2017-12-28T21:14:30.800Z,3.10
2017-12-28T21:17:03.007Z,3.20
2017-12-28T21:19:39.929Z,3.30
2017-12-28T21:22:15.657Z,3.60
2017-12-28T21:24:46.906Z,3.80
2017-12-28T21:27:24.517Z,3.20
2017-12-28T21:30:04.877Z,2.90
2017-12-28T21:32:40.756Z,3.40
2017-12-28T21:35:16.240Z,3.00
2017-12-28T21:37:47.252Z,3.30
2017-12-28T21:40:32.639Z,2.80
2017-12-28T21:43:08.608Z,3.10
2017-12-28T21:45:41.367Z,3.20
2017-12-28T21:48:25.216Z,3.50
2017-12-28T21:50:59.587Z,3.90
2017-12-28T21:53:34.150Z,3.30
2017-12-28T21:56:07.131Z,3.30
2017-12-28T21:58:49.507Z,3.40
2017-12-28T22:01:23.367Z,4.00
2017-12-28T22:03:54.442Z,4.00
2017-12-28T22:06:31.199Z,4.00
2017-12-28T22:09:03.486Z,4.30
2017-12-28T22:11:34.539Z,4.60
2017-12-28T22:16:52.246Z,4.50
2017-12-28T22:19:24.349Z,3.40
2017-12-28T22:21:54.738Z,3.90
2017-12-28T22:24:27.284Z,3.60
2017-12-28T22:26:59.054Z,3.60
2017-12-28T22:29:54.165Z,3.60
2017-12-28T22:32:36.046Z,3.20
2017-12-28T22:35:15.205Z,3.70
2017-12-28T22:37:50.836Z,3.80
2017-12-28T22:40:42.064Z,3.70
2017-12-28T22:43:16.848Z,3.40
2017-12-28T22:45:47.804Z,3.40
2017-12-28T22:48:20.844Z,3.60
2017-12-28T22:50:57.254Z,3.60
2017-12-28T22:53:32.839Z,4.10
2017-12-28T22:56:03.359Z,4.00
2017-12-28T22:59:09.274Z,4.40
2017-12-28T23:01:47.252Z,4.20
2017-12-28T23:08:42.164Z,3.90
2017-12-28T23:11:52.063Z,3.90
2017-12-28T23:18:23.091Z,3.90
2017-12-28T23:26:12.954Z,4.60
2017-12-28T23:29:05.201Z,4.30
2017-12-28T23:35:58.711Z,4.60
2017-12-28T23:43:09.483Z,4.40
2017-12-28T23:49:45.914Z,4.80
2017-12-28T23:52:21.534Z,4.70
